Time;durP1;ratioP1;P1;durP2;ratioP2;P2;SDS_P1;SDS_P2;PMS_P1;PMS_P2;Temp;Humidity;BMP_temperature;BMP_pressure;BME280_temperature;BME280_humidity;BME280_pressure;Samples;Min_cycle;Max_cycle;Signal;HPM_P1;HPM_P2
2022/08/29 00:00:17;;;;;;;4.80;1.60;;;17.50;1.00;;;;;;6129470;23;20139;-94
2022/08/29 00:03:00;;;;;;;6.23;2.43;;;17.40;1.00;;;;;;6129665;23;20148;-93
2022/08/29 00:08:51;;;;;;;5.53;2.03;;;17.30;1.00;;;;;;6154461;23;20187;-95
2022/08/29 00:11:59;;;;;;;4.60;2.03;;;17.30;1.00;;;;;;6125833;23;20266;-95
2022/08/29 00:14:45;;;;;;;6.77;2.33;;;17.30;1.00;;;;;;6146436;23;20147;-93
2022/08/29 00:17:22;;;;;;;3.57;1.93;;;17.30;1.00;;;;;;6096303;23;20226;-95
2022/08/29 00:23:11;;;;;;;4.00;2.20;;;17.20;1.00;;;;;;6142506;23;20487;-96
2022/08/29 00:25:44;;;;;;;4.90;2.53;;;17.20;1.00;;;;;;6121451;23;20250;-96
2022/08/29 00:28:13;;;;;;;4.13;2.13;;;17.10;1.00;;;;;;6126450;23;20169;-92
2022/08/29 00:30:40;;;;;;;5.67;2.37;;;17.10;1.00;;;;;;6129574;23;20167;-94
2022/08/29 00:33:09;;;;;;;5.87;2.57;;;17.10;1.00;;;;;;6121724;23;20159;-95
2022/08/29 00:38:57;;;;;;;4.17;2.00;;;17.10;1.00;;;;;;6139855;23;20214;-94
2022/08/29 00:41:23;;;;;;;4.53;2.40;;;17.00;1.00;;;;;;6104986;23;20222;-93
2022/08/29 00:43:49;;;;;;;3.60;2.10;;;17.00;1.00;;;;;;6105146;23;20572;-93
2022/08/29 00:46:40;;;;;;;5.67;2.47;;;17.00;1.00;;;;;;6127410;23;20144;-93
2022/08/29 00:49:10;;;;;;;4.07;2.13;;;16.90;1.00;;;;;;6128052;23;20187;-93
2022/08/29 00:51:40;;;;;;;5.30;2.30;;;16.80;1.00;;;;;;6126270;23;20202;-93
2022/08/29 00:54:16;;;;;;;3.60;2.03;;;16.80;1.00;;;;;;6106689;23;20159;-93
2022/08/29 00:57:02;;;;;;;5.90;2.50;;;16.80;1.00;;;;;;6103464;23;20219;-92
2022/08/29 00:59:35;;;;;;;5.53;2.40;;;16.80;1.00;;;;;;6102854;23;20186;-91
2022/08/29 01:02:02;;;;;;;3.47;2.00;;;16.70;1.00;;;;;;6104322;23;20235;-93
2022/08/29 01:04:28;;;;;;;4.53;2.50;;;16.70;1.00;;;;;;6103127;23;20144;-93
2022/08/29 01:06:54;;;;;;;5.47;2.60;;;16.70;1.00;;;;;;6118391;23;20151;-92
2022/08/29 01:09:23;;;;;;;6.67;2.90;;;16.70;1.00;;;;;;6142685;23;20179;-91
2022/08/29 01:14:35;;;;;;;5.53;2.37;;;16.70;1.00;;;;;;6111008;23;20228;-91
2022/08/29 01:17:02;;;;;;;5.30;2.47;;;16.70;1.00;;;;;;6109707;23;20167;-91
2022/08/29 01:19:34;;;;;;;7.30;2.47;;;16.70;1.00;;;;;;6107713;23;20206;-91
2022/08/29 01:22:37;;;;;;;6.33;2.30;;;16.70;1.00;;;;;;6107643;23;20682;-91
2022/08/29 01:25:15;;;;;;;5.23;2.53;;;16.70;1.00;;;;;;6128732;23;20163;-92
2022/08/29 01:27:47;;;;;;;5.73;2.50;;;16.70;1.00;;;;;;6116577;23;20214;-93
2022/08/29 01:30:14;;;;;;;5.83;2.43;;;16.70;1.00;;;;;;6094484;23;20194;-95
2022/08/29 01:32:42;;;;;;;6.07;2.80;;;16.70;1.00;;;;;;6143886;23;20136;-94
2022/08/29 01:35:23;;;;;;;6.43;2.63;;;16.70;1.00;;;;;;6121650;23;20166;-94
2022/08/29 01:38:26;;;;;;;7.23;2.60;;;16.70;1.00;;;;;;6093240;23;20221;-95
2022/08/29 01:40:58;;;;;;;4.17;2.67;;;16.70;1.00;;;;;;6114899;23;20219;-96
2022/08/29 01:43:44;;;;;;;6.20;2.40;;;16.60;1.00;;;;;;6138122;23;20171;-95
2022/08/29 01:46:13;;;;;;;4.10;2.80;;;16.50;1.00;;;;;;6114066;23;20178;-96
2022/08/29 01:48:46;;;;;;;5.20;3.03;;;16.40;1.00;;;;;;6146587;23;20235;-95
2022/08/29 01:51:14;;;;;;;4.50;2.80;;;16.50;1.00;;;;;;6099318;23;20139;-94
2022/08/29 01:53:41;;;;;;;6.00;2.87;;;16.40;1.00;;;;;;6122016;23;20158;-96
2022/08/29 01:56:23;;;;;;;5.83;3.03;;;16.30;1.00;;;;;;6139492;23;20159;-95
2022/08/29 01:58:52;;;;;;;4.40;2.83;;;16.30;1.00;;;;;;6085684;23;20170;-96
2022/08/29 02:01:21;;;;;;;5.50;3.07;;;16.20;1.00;;;;;;6090821;23;20162;-94
2022/08/29 02:03:50;;;;;;;5.53;2.73;;;16.20;1.00;;;;;;6124532;23;20157;-94
2022/08/29 02:06:15;;;;;;;6.10;2.93;;;16.20;1.00;;;;;;6124243;23;20165;-92
2022/08/29 02:08:44;;;;;;;8.70;3.07;;;16.20;1.00;;;;;;6128516;23;20603;-93
2022/08/29 02:11:11;;;;;;;6.77;3.27;;;16.20;1.00;;;;;;6117490;23;20190;-94
2022/08/29 02:13:44;;;;;;;6.07;3.57;;;16.20;1.00;;;;;;6141855;23;20216;-95
2022/08/29 02:16:14;;;;;;;9.27;2.93;;;16.20;1.00;;;;;;6089260;23;20155;-96
2022/08/29 02:18:43;;;;;;;7.60;3.37;;;16.20;1.00;;;;;;6111885;23;20148;-93
2022/08/29 02:21:13;;;;;;;5.80;3.30;;;16.20;1.00;;;;;;6113178;23;20167;-96
2022/08/29 02:23:39;;;;;;;7.03;3.30;;;16.20;1.00;;;;;;6118460;23;20166;-93
2022/08/29 02:26:06;;;;;;;6.63;3.33;;;16.20;1.00;;;;;;6120504;23;20152;-95
2022/08/29 02:28:34;;;;;;;5.97;3.43;;;16.10;1.00;;;;;;6115915;23;20183;-94
2022/08/29 02:31:01;;;;;;;5.53;3.57;;;16.10;1.00;;;;;;6117290;23;20154;-93
2022/08/29 02:33:31;;;;;;;6.20;3.60;;;16.00;1.00;;;;;;6120214;23;20155;-93
2022/08/29 02:35:57;;;;;;;7.87;4.03;;;16.00;1.00;;;;;;6126895;23;20139;-95
2022/08/29 02:38:23;;;;;;;6.60;3.77;;;16.00;1.00;;;;;;6124579;23;20143;-92
2022/08/29 02:40:50;;;;;;;5.63;3.23;;;16.00;1.00;;;;;;6120447;23;20147;-94
2022/08/29 02:43:17;;;;;;;8.47;3.60;;;16.00;1.00;;;;;;6114566;23;20155;-92
2022/08/29 02:45:44;;;;;;;7.40;3.60;;;16.10;1.00;;;;;;6111317;23;20151;-92
2022/08/29 02:48:11;;;;;;;4.67;3.50;;;16.10;1.00;;;;;;6115192;23;20147;-94
2022/08/29 02:50:42;;;;;;;7.20;3.80;;;16.00;1.00;;;;;;6108736;23;20506;-93
2022/08/29 02:53:10;;;;;;;5.97;3.87;;;15.90;2.90;;;;;;6105945;23;20589;-93
2022/08/29 02:55:37;;;;;;;8.33;4.33;;;15.90;2.00;;;;;;6130531;23;20147;-93
2022/08/29 02:58:03;;;;;;;6.87;3.93;;;15.90;6.00;;;;;;6105324;23;20219;-92
2022/08/29 03:00:36;;;;;;;8.33;3.70;;;15.90;5.90;;;;;;6103413;23;20622;-93
2022/08/29 03:03:03;;;;;;;9.60;4.37;;;16.00;6.80;;;;;;6104365;23;20236;-93
2022/08/29 03:05:33;;;;;;;5.93;4.13;;;15.80;11.30;;;;;;6103319;23;20174;-93
2022/08/29 03:08:01;;;;;;;8.23;3.80;;;15.80;10.50;;;;;;6104255;23;20637;-92
2022/08/29 03:10:27;;;;;;;6.30;3.80;;;15.80;10.50;;;;;;6103475;23;20186;-93
2022/08/29 03:12:54;;;;;;;6.37;3.93;;;15.70;16.50;;;;;;6103328;23;20154;-92
2022/08/29 03:15:21;;;;;;;8.43;3.77;;;15.60;16.10;;;;;;6118173;23;20172;-92
2022/08/29 03:17:48;;;;;;;7.53;3.93;;;15.60;20.00;;;;;;6129219;23;20242;-92
2022/08/29 03:20:16;;;;;;;7.10;3.87;;;15.60;21.00;;;;;;6129298;23;20175;-92
2022/08/29 03:23:32;;;;;;;8.47;3.97;;;15.70;21.90;;;;;;6121907;23;20154;-95
2022/08/29 03:26:01;;;;;;;6.37;3.47;;;15.60;21.10;;;;;;6134286;23;20147;-96
2022/08/29 03:28:29;;;;;;;6.97;3.50;;;15.40;23.60;;;;;;6111557;23;20183;-96
2022/08/29 03:30:54;;;;;;;7.80;3.70;;;15.50;27.70;;;;;;6110892;23;20151;-94
2022/08/29 03:33:20;;;;;;;5.77;3.70;;;15.50;26.60;;;;;;6136308;23;20190;-94
2022/08/29 03:35:46;;;;;;;8.57;3.83;;;15.60;26.80;;;;;;6124463;23;20159;-93
2022/08/29 03:38:15;;;;;;;6.77;3.93;;;15.50;27.00;;;;;;6129682;23;20143;-91
2022/08/29 03:40:41;;;;;;;5.60;3.80;;;15.60;25.60;;;;;;6119019;23;20198;-94
2022/08/29 03:43:09;;;;;;;6.73;3.33;;;15.50;26.60;;;;;;6117006;23;20163;-96
2022/08/29 03:45:38;;;;;;;8.10;3.37;;;15.50;24.50;;;;;;6106864;23;20204;-95
2022/08/29 03:48:38;;;;;;;6.90;3.67;;;15.50;25.00;;;;;;6108722;23;20144;-96
2022/08/29 03:51:05;;;;;;;9.67;3.97;;;15.50;26.90;;;;;;6101696;23;20156;-92
2022/08/29 03:53:33;;;;;;;8.63;3.70;;;15.50;25.60;;;;;;6098794;23;20152;-93
2022/08/29 03:56:00;;;;;;;6.80;3.67;;;15.50;29.40;;;;;;6099606;23;20214;-92
2022/08/29 03:58:26;;;;;;;5.47;3.57;;;15.60;28.60;;;;;;6099615;23;20210;-94
2022/08/29 04:00:51;;;;;;;12.40;4.07;;;15.60;26.70;;;;;;6099941;23;20171;-92
2022/08/29 04:03:18;;;;;;;7.57;3.57;;;15.70;25.00;;;;;;6101388;23;20151;-93
2022/08/29 04:05:44;;;;;;;5.87;3.50;;;15.60;22.70;;;;;;6101144;23;20160;-94
2022/08/29 04:08:10;;;;;;;8.30;3.80;;;15.50;26.60;;;;;;6105155;23;20159;-92
2022/08/29 04:10:38;;;;;;;6.60;3.43;;;15.50;26.50;;;;;;6105852;23;20192;-94
2022/08/29 04:13:07;;;;;;;7.13;3.70;;;15.40;27.50;;;;;;6105415;23;20156;-93
2022/08/29 04:15:39;;;;;;;6.60;3.83;;;15.50;27.10;;;;;;6106916;23;20221;-92
2022/08/29 04:18:06;;;;;;;9.17;4.80;;;15.40;27.40;;;;;;6107703;23;20199;-92
2022/08/29 04:20:36;;;;;;;11.47;4.20;;;15.30;34.20;;;;;;6117872;23;20163;-93
2022/08/29 04:23:05;;;;;;;9.97;3.67;;;15.30;34.10;;;;;;6122320;23;20167;-91
2022/08/29 04:25:35;;;;;;;5.87;3.40;;;15.30;32.20;;;;;;6098493;23;20144;-92
2022/08/29 04:28:05;;;;;;;6.20;3.33;;;15.30;34.80;;;;;;6120736;23;20236;-91
2022/08/29 04:30:35;;;;;;;6.87;3.70;;;15.20;35.30;;;;;;6118709;23;20180;-92
2022/08/29 04:33:01;;;;;;;10.70;4.10;;;15.20;37.00;;;;;;6118620;23;20223;-92
2022/08/29 04:35:30;;;;;;;6.20;3.83;;;15.20;38.70;;;;;;6116522;23;20152;-91
2022/08/29 04:38:01;;;;;;;7.10;3.50;;;15.20;38.60;;;;;;6107209;23;20159;-91
2022/08/29 04:40:31;;;;;;;10.40;3.70;;;15.10;41.20;;;;;;6104742;23;20158;-93
2022/08/29 04:42:58;;;;;;;7.40;3.70;;;15.20;45.20;;;;;;6107000;23;20610;-92
2022/08/29 04:46:02;;;;;;;7.53;3.80;;;15.10;41.90;;;;;;6102279;23;20156;-92
2022/08/29 04:48:30;;;;;;;9.83;3.97;;;15.00;43.40;;;;;;6104930;23;20190;-93
2022/08/29 04:51:01;;;;;;;10.17;4.20;;;15.10;45.70;;;;;;6124276;23;20143;-94
2022/08/29 04:53:42;;;;;;;11.77;3.93;;;15.00;47.10;;;;;;6124605;23;20158;-92
2022/08/29 04:56:11;;;;;;;11.10;4.53;;;15.20;47.20;;;;;;6121304;23;20202;-92
2022/08/29 04:58:40;;;;;;;10.37;3.73;;;15.00;48.20;;;;;;6124117;23;20167;-93
2022/08/29 05:01:07;;;;;;;7.47;3.93;;;15.00;47.40;;;;;;6123642;23;20140;-94
2022/08/29 05:03:38;;;;;;;9.27;4.17;;;15.10;46.10;;;;;;6121824;23;20188;-93
2022/08/29 05:06:07;;;;;;;10.03;4.47;;;15.10;46.20;;;;;;6082483;23;20152;-93
2022/08/29 05:08:36;;;;;;;7.23;4.10;;;15.20;43.10;;;;;;6116555;23;20187;-93
2022/08/29 05:11:08;;;;;;;9.13;3.80;;;15.20;40.20;;;;;;6121419;23;20155;-95
2022/08/29 05:13:35;;;;;;;10.30;4.17;;;15.30;37.80;;;;;;6097931;23;20136;-95
2022/08/29 05:16:14;;;;;;;8.17;3.67;;;15.20;34.70;;;;;;6118786;23;20147;-95
2022/08/29 05:18:46;;;;;;;7.33;4.10;;;15.30;32.50;;;;;;6093899;23;20166;-93
2022/08/29 05:21:46;;;;;;;8.53;3.73;;;15.30;34.30;;;;;;6104785;23;20592;-94
2022/08/29 05:24:18;;;;;;;8.70;3.50;;;15.40;32.70;;;;;;6101635;23;20143;-94
2022/08/29 05:27:25;;;;;;;15.73;4.27;;;15.40;28.00;;;;;;6103028;23;20141;-92
2022/08/29 05:29:51;;;;;;;12.13;4.03;;;15.50;27.40;;;;;;6108944;23;20195;-95
2022/08/29 05:36:02;;;;;;;11.37;3.83;;;15.50;26.40;;;;;;6115071;23;20238;-92
2022/08/29 05:38:32;;;;;;;8.40;4.47;;;15.40;29.00;;;;;;6115312;23;20242;-96
2022/08/29 05:40:59;;;;;;;12.13;3.90;;;15.40;26.00;;;;;;6089375;23;20160;-93
2022/08/29 05:43:28;;;;;;;7.50;3.60;;;15.40;31.70;;;;;;6104628;23;20532;-95
2022/08/29 05:46:02;;;;;;;7.93;3.20;;;15.30;25.90;;;;;;6088120;23;20161;-94
2022/08/29 05:48:30;;;;;;;10.10;4.30;;;15.30;24.30;;;;;;6102500;23;20287;-92
2022/08/29 05:51:00;;;;;;;10.17;4.40;;;15.40;24.30;;;;;;6101851;23;20148;-94
2022/08/29 05:53:27;;;;;;;12.37;4.03;;;15.40;24.10;;;;;;6112501;23;20163;-95
2022/08/29 05:55:56;;;;;;;10.80;4.13;;;15.30;25.40;;;;;;6089705;23;20163;-95
2022/08/29 05:58:22;;;;;;;10.30;4.27;;;15.30;28.00;;;;;;6113995;23;20174;-93
2022/08/29 06:00:48;;;;;;;10.77;3.70;;;15.30;25.40;;;;;;6109760;23;20166;-94
2022/08/29 06:03:15;;;;;;;10.63;4.47;;;15.30;26.10;;;;;;6109142;23;20230;-93
2022/08/29 06:05:49;;;;;;;9.10;3.83;;;15.30;26.20;;;;;;6123125;23;20148;-95
2022/08/29 06:08:15;;;;;;;11.20;4.47;;;15.40;28.30;;;;;;6099822;23;20167;-92
2022/08/29 06:10:44;;;;;;;12.57;4.00;;;15.40;26.40;;;;;;6122972;23;20179;-93
2022/08/29 06:16:32;;;;;;;8.33;4.23;;;15.40;27.40;;;;;;6139758;23;20198;-84
2022/08/29 06:18:58;;;;;;;12.03;4.10;;;15.50;35.20;;;;;;6125275;23;20766;-84
2022/08/29 06:21:25;;;;;;;9.73;3.90;;;15.90;33.40;;;;;;6127471;23;20143;-83
2022/08/29 06:23:53;;;;;;;10.47;4.83;;;15.90;20.10;;;;;;6133271;23;20170;-83
2022/08/29 06:26:19;;;;;;;10.60;4.37;;;16.00;14.50;;;;;;6148817;23;20158;-83
2022/08/29 06:29:17;;;;;;;12.30;4.40;;;15.90;11.30;;;;;;6176294;23;20183;-91
2022/08/29 06:32:00;;;;;;;9.10;4.93;;;15.80;8.50;;;;;;6119760;23;20183;-92
2022/08/29 06:34:29;;;;;;;11.90;4.27;;;15.70;14.30;;;;;;6085237;23;20148;-92
2022/08/29 06:37:05;;;;;;;14.10;5.00;;;15.80;13.70;;;;;;6110116;23;20148;-89
2022/08/29 06:39:33;;;;;;;11.87;5.00;;;15.90;14.30;;;;;;6088644;23;20234;-92
2022/08/29 06:42:17;;;;;;;12.60;4.67;;;15.80;12.90;;;;;;6063524;23;20152;-89
2022/08/29 06:44:44;;;;;;;7.70;4.67;;;15.70;12.70;;;;;;6088903;23;20694;-90
2022/08/29 06:47:10;;;;;;;10.30;4.90;;;15.70;15.10;;;;;;6086144;23;20148;-90
2022/08/29 06:49:37;;;;;;;10.13;4.83;;;15.70;18.00;;;;;;6089200;23;20189;-89
2022/08/29 06:52:14;;;;;;;10.47;4.70;;;15.70;18.10;;;;;;6114629;23;20148;-89
2022/08/29 06:54:44;;;;;;;7.00;4.13;;;15.60;20.10;;;;;;6082833;23;20160;-91
2022/08/29 06:57:10;;;;;;;12.43;4.80;;;15.60;21.20;;;;;;6120765;23;20215;-88
2022/08/29 06:59:49;;;;;;;8.33;5.03;;;15.60;20.70;;;;;;6094975;23;20168;-91
2022/08/29 07:02:15;;;;;;;9.27;4.77;;;15.70;19.30;;;;;;6100770;23;20158;-88
2022/08/29 07:04:43;;;;;;;9.53;5.47;;;15.60;22.20;;;;;;6140861;23;20150;-90
2022/08/29 07:07:16;;;;;;;9.10;4.83;;;15.60;24.60;;;;;;6143534;23;20512;-89
2022/08/29 07:09:54;;;;;;;9.27;5.50;;;15.60;20.80;;;;;;6134452;23;20202;-89
2022/08/29 07:12:27;;;;;;;14.57;5.43;;;15.60;21.10;;;;;;6134191;23;20162;-88
2022/08/29 07:15:31;;;;;;;10.60;5.70;;;15.60;20.40;;;;;;6139436;23;20234;-90
2022/08/29 07:18:03;;;;;;;12.20;5.27;;;15.40;22.10;;;;;;6136471;23;20163;-90
2022/08/29 07:20:39;;;;;;;8.40;4.57;;;15.80;14.40;;;;;;6139898;23;20147;-90
2022/08/29 07:23:05;;;;;;;12.63;5.50;;;15.90;12.00;;;;;;6139545;23;20159;-90
2022/08/29 07:26:13;;;;;;;9.83;5.30;;;16.10;8.30;;;;;;6139119;23;20141;-89
2022/08/29 07:28:41;;;;;;;13.30;5.10;;;16.40;1.60;;;;;;6133959;23;20219;-89
2022/08/29 07:31:32;;;;;;;9.20;4.40;;;16.50;1.00;;;;;;6137469;23;20144;-88
2022/08/29 07:34:33;;;;;;;12.20;4.73;;;16.60;1.00;;;;;;6137461;23;20163;-88
2022/08/29 07:37:49;;;;;;;10.87;4.47;;;16.60;1.00;;;;;;6142666;23;20147;-90
2022/08/29 07:40:56;;;;;;;10.97;4.43;;;16.60;1.00;;;;;;6169339;23;20160;-89
2022/08/29 07:43:26;;;;;;;11.50;4.40;;;16.70;1.00;;;;;;6169946;23;20155;-90
2022/08/29 07:45:55;;;;;;;8.13;4.03;;;16.60;1.00;;;;;;6144369;23;20169;-88
2022/08/29 07:48:23;;;;;;;8.93;4.40;;;16.70;1.00;;;;;;6145199;23;20504;-89
2022/08/29 07:50:55;;;;;;;11.50;4.40;;;16.90;1.00;;;;;;6118250;23;20206;-88
2022/08/29 07:53:26;;;;;;;15.40;4.13;;;16.90;1.00;;;;;;6142078;23;20151;-89
2022/08/29 07:59:19;;;;;;;10.70;4.13;;;17.00;1.00;;;;;;6144576;23;20215;-89
2022/08/29 08:01:57;;;;;;;9.47;3.33;;;16.90;1.00;;;;;;6139883;23;20163;-88
2022/08/29 08:04:33;;;;;;;12.27;3.37;;;17.00;1.00;;;;;;6143056;23;20158;-87
2022/08/29 08:07:25;;;;;;;9.17;3.60;;;17.00;1.00;;;;;;6146245;23;20186;-89
2022/08/29 08:09:55;;;;;;;8.33;3.43;;;16.90;1.00;;;;;;6141939;23;20194;-89
2022/08/29 08:12:26;;;;;;;9.13;2.93;;;17.00;1.00;;;;;;6141928;23;20140;-88
2022/08/29 08:14:55;;;;;;;5.33;2.80;;;16.90;1.00;;;;;;6141076;23;20182;-89
2022/08/29 08:17:23;;;;;;;11.93;3.50;;;17.00;1.00;;;;;;6137779;23;20148;-89
2022/08/29 08:19:52;;;;;;;15.53;3.97;;;17.10;1.00;;;;;;6140194;23;20242;-90
2022/08/29 08:22:23;;;;;;;8.20;3.20;;;17.20;1.00;;;;;;6138343;23;20152;-89
2022/08/29 08:24:54;;;;;;;6.27;2.87;;;17.30;1.00;;;;;;6141479;23;20159;-89
2022/08/29 08:27:29;;;;;;;12.53;3.97;;;17.40;1.00;;;;;;6116742;23;20153;-90
2022/08/29 08:29:55;;;;;;;8.53;2.90;;;17.40;1.00;;;;;;6137785;23;20228;-90
2022/08/29 08:32:20;;;;;;;11.67;2.53;;;17.50;1.00;;;;;;6138441;23;20494;-89
2022/08/29 08:34:49;;;;;;;6.80;2.37;;;17.40;1.00;;;;;;6138553;23;20213;-91
2022/08/29 08:37:16;;;;;;;11.70;3.13;;;17.50;1.00;;;;;;6115567;23;20221;-91
2022/08/29 08:39:43;;;;;;;6.13;2.77;;;17.60;1.00;;;;;;6141295;23;20148;-91
2022/08/29 08:45:19;;;;;;;6.73;2.57;;;17.90;1.00;;;;;;6137424;23;20187;-88
2022/08/29 08:48:02;;;;;;;7.93;3.00;;;18.00;1.00;;;;;;6108411;23;20252;-89
2022/08/29 08:50:56;;;;;;;6.90;2.97;;;18.20;1.00;;;;;;6113468;23;20244;-89
2022/08/29 08:53:46;;;;;;;7.57;2.70;;;18.20;1.00;;;;;;6124838;23;20203;-89
2022/08/29 08:56:34;;;;;;;6.90;3.00;;;18.40;1.00;;;;;;6124390;23;20445;-88
2022/08/29 08:59:06;;;;;;;7.00;2.77;;;18.30;1.00;;;;;;6115515;23;20158;-89
2022/08/29 09:02:02;;;;;;;5.03;3.23;;;18.30;1.00;;;;;;6145242;23;20141;-89
2022/08/29 09:05:06;;;;;;;7.00;2.80;;;18.40;1.00;;;;;;6120911;23;20225;-89
2022/08/29 09:07:50;;;;;;;6.00;2.70;;;18.50;1.00;;;;;;6121512;23;20146;-89
2022/08/29 09:10:35;;;;;;;12.50;3.40;;;18.60;1.00;;;;;;6110085;23;20199;-91
2022/08/29 09:13:38;;;;;;;6.13;2.80;;;18.70;1.00;;;;;;6118747;23;20140;-91
2022/08/29 09:16:19;;;;;;;5.97;2.73;;;18.70;99.90;;;;;;6123133;23;20192;-89
2022/08/29 09:18:46;;;;;;;7.63;3.10;;;18.70;99.90;;;;;;6095184;23;20178;-90
2022/08/29 09:24:47;;;;;;;7.77;2.70;;;18.80;99.90;;;;;;6114905;23;20165;-91
2022/08/29 09:27:23;;;;;;;9.40;2.83;;;18.90;99.90;;;;;;6092300;23;20195;-91
2022/08/29 09:30:08;;;;;;;5.83;2.87;;;18.90;99.90;;;;;;6065964;23;20195;-92
2022/08/29 09:33:01;;;;;;;10.70;3.10;;;18.90;99.90;;;;;;6112983;23;20161;-91
2022/08/29 09:35:38;;;;;;;8.60;2.87;;;19.00;99.90;;;;;;6093342;23;20151;-90
2022/08/29 09:38:17;;;;;;;8.17;3.27;;;19.10;99.90;;;;;;6121448;23;20163;-92
2022/08/29 09:40:53;;;;;;;7.70;2.90;;;19.20;99.90;;;;;;6118984;23;20161;-90
2022/08/29 09:43:22;;;;;;;7.20;2.63;;;19.20;99.90;;;;;;6095848;23;20175;-92
2022/08/29 09:46:25;;;;;;;6.17;2.80;;;19.10;99.90;;;;;;6096721;23;20146;-92
2022/08/29 09:48:52;;;;;;;7.40;2.80;;;19.00;99.90;;;;;;5980839;24;20192;-91
2022/08/29 09:51:40;;;;;;;7.50;2.80;;;19.00;99.90;;;;;;6067900;23;20150;-91
2022/08/29 09:54:24;;;;;;;6.93;2.93;;;19.20;99.90;;;;;;6090418;23;20162;-92
2022/08/29 09:56:59;;;;;;;5.53;2.67;;;19.30;99.90;;;;;;6069592;23;20171;-93
2022/08/29 09:59:28;;;;;;;6.20;2.90;;;19.50;99.90;;;;;;6122316;23;20235;-92
2022/08/29 10:02:25;;;;;;;8.67;3.30;;;19.50;99.90;;;;;;6121271;23;20174;-91
2022/08/29 10:08:27;;;;;;;7.13;2.63;;;19.80;94.90;;;;;;6124229;23;20146;-93
2022/08/29 10:11:02;;;;;;;4.97;2.47;;;19.90;1.00;;;;;;6120922;23;20202;-92
2022/08/29 10:13:38;;;;;;;6.53;2.80;;;20.00;1.00;;;;;;6090555;23;20177;-92
2022/08/29 10:16:19;;;;;;;4.93;2.50;;;20.00;1.00;;;;;;6092400;23;20186;-93
2022/08/29 10:19:17;;;;;;;8.30;3.40;;;20.00;1.00;;;;;;6068631;23;20170;-92
2022/08/29 10:22:14;;;;;;;8.10;3.00;;;20.00;1.00;;;;;;6072415;23;20152;-92
2022/08/29 10:25:21;;;;;;;5.70;3.10;;;20.00;1.00;;;;;;6095109;23;20170;-93
2022/08/29 10:28:12;;;;;;;6.50;2.37;;;20.00;1.00;;;;;;6093840;23;20158;-91
2022/08/29 10:30:56;;;;;;;5.60;2.93;;;20.10;1.00;;;;;;6094531;23;20258;-90
2022/08/29 10:33:34;;;;;;;7.17;3.10;;;20.20;1.00;;;;;;6093331;23;20175;-93
2022/08/29 10:36:17;;;;;;;6.07;3.00;;;20.30;1.00;;;;;;6118637;23;20157;-91
2022/08/29 10:39:12;;;;;;;4.50;2.73;;;20.20;1.00;;;;;;6121556;23;20147;-93
2022/08/29 10:41:57;;;;;;;5.97;3.23;;;20.30;1.00;;;;;;6097827;23;20159;-93
2022/08/29 10:44:42;;;;;;;8.10;3.97;;;20.40;1.00;;;;;;6095838;23;20179;-92
2022/08/29 10:47:46;;;;;;;5.53;3.07;;;20.30;1.00;;;;;;6124230;23;20248;-93
2022/08/29 10:51:09;;;;;;;5.10;2.73;;;20.40;1.00;;;;;;6120887;23;20223;-93
2022/08/29 10:53:42;;;;;;;5.57;2.40;;;20.60;1.00;;;;;;6098956;23;20149;-93
2022/08/29 10:56:27;;;;;;;11.00;3.37;;;20.80;23.50;;;;;;6098524;23;20153;-93
2022/08/29 10:59:27;;;;;;;6.07;2.83;;;20.50;1.00;;;;;;6100360;23;20138;-90
2022/08/29 11:02:20;;;;;;;8.77;3.13;;;20.50;99.90;;;;;;6100294;23;20183;-91
2022/08/29 11:05:05;;;;;;;10.10;3.30;;;20.40;99.90;;;;;;6099828;23;20159;-89
2022/08/29 11:07:42;;;;;;;8.27;3.30;;;20.40;99.90;;;;;;6101197;23;20148;-91
2022/08/29 11:10:24;;;;;;;8.70;3.13;;;20.40;99.90;;;;;;6125100;23;20268;-92
2022/08/29 11:13:11;;;;;;;6.13;3.00;;;20.50;99.90;;;;;;6111827;23;20199;-90
2022/08/29 11:16:00;;;;;;;7.93;3.60;;;20.50;99.90;;;;;;6130079;23;20151;-91
2022/08/29 11:18:30;;;;;;;6.60;3.00;;;20.60;99.90;;;;;;6125998;23;20155;-92
2022/08/29 11:21:19;;;;;;;6.53;2.90;;;20.70;1.00;;;;;;6119386;23;20180;-92
2022/08/29 11:23:47;;;;;;;6.57;3.00;;;20.90;1.00;;;;;;6110493;23;20178;-91
2022/08/29 11:26:35;;;;;;;8.67;3.10;;;21.10;88.60;;;;;;6109641;23;20585;-91
2022/08/29 11:29:31;;;;;;;5.43;3.00;;;21.00;99.90;;;;;;6113725;23;20179;-91
2022/08/29 11:32:26;;;;;;;6.47;2.90;;;20.90;80.80;;;;;;6115401;23;20596;-89
2022/08/29 11:35:20;;;;;;;6.13;2.83;;;21.10;99.90;;;;;;6121656;23;20608;-90
2022/08/29 11:38:17;;;;;;;7.53;2.90;;;21.00;1.00;;;;;;6115151;23;20492;-91
2022/08/29 11:44:41;;;;;;;5.53;3.13;;;21.20;1.00;;;;;;6155336;23;20212;-91
2022/08/29 11:47:44;;;;;;;9.30;2.73;;;21.30;1.00;;;;;;6127733;23;20191;-89
2022/08/29 11:50:28;;;;;;;8.57;3.20;;;21.60;99.90;;;;;;6135908;23;20250;-89
2022/08/29 11:53:39;;;;;;;5.43;2.83;;;21.80;99.90;;;;;;6112475;23;20165;-91
2022/08/29 11:56:27;;;;;;;6.60;3.20;;;21.60;99.90;;;;;;6134893;23;20149;-89
2022/08/29 11:58:57;;;;;;;7.57;3.00;;;21.60;1.00;;;;;;6121939;23;20614;-89
2022/08/29 12:01:35;;;;;;;6.53;3.27;;;21.70;41.00;;;;;;6124766;23;20156;-89
2022/08/29 12:04:10;;;;;;;6.17;2.83;;;21.80;99.90;;;;;;6128665;23;20185;-88
2022/08/29 12:06:53;;;;;;;8.67;2.80;;;21.80;99.90;;;;;;6126776;23;20134;-89
2022/08/29 12:10:13;;;;;;;5.80;2.57;;;21.70;99.90;;;;;;6119583;23;20193;-89
2022/08/29 12:12:59;;;;;;;6.20;2.73;;;21.70;1.00;;;;;;6103010;23;20498;-90
2022/08/29 12:15:34;;;;;;;6.37;3.17;;;21.90;99.90;;;;;;6104471;23;20142;-92
2022/08/29 12:18:38;;;;;;;;;;;;;;;;;;;;;
2022/08/29 12:24:54;;;;;;;6.57;3.20;;;21.70;1.00;;;;;;6049890;23;20163;-92
2022/08/29 12:28:03;;;;;;;6.07;2.97;;;21.90;1.00;;;;;;6044585;23;20164;-88
2022/08/29 12:30:57;;;;;;;8.07;2.83;;;22.30;1.00;;;;;;6074296;23;20178;-90
2022/08/29 12:34:04;;;;;;;6.30;2.70;;;22.20;1.00;;;;;;6076576;23;20180;-93
2022/08/29 12:37:15;;;;;;;8.30;3.23;;;21.90;1.00;;;;;;6107048;23;20167;-90
2022/08/29 12:40:21;;;;;;;6.43;2.97;;;22.00;1.00;;;;;;6080077;23;20165;-91
2022/08/29 12:42:59;;;;;;;4.90;2.57;;;22.20;1.00;;;;;;6080561;23;20151;-89
2022/08/29 12:45:31;;;;;;;8.30;2.93;;;22.70;1.00;;;;;;6078151;23;20161;-92
2022/08/29 12:48:30;;;;;;;15.43;3.73;;;23.00;99.90;;;;;;6086065;23;20156;-90
2022/08/29 12:50:56;;;;;;;5.97;2.80;;;23.10;1.00;;;;;;6091456;23;20152;-90
2022/08/29 12:53:29;;;;;;;6.27;3.30;;;22.90;1.00;;;;;;6091403;23;20187;-91
2022/08/29 12:56:00;;;;;;;6.17;2.83;;;22.80;99.90;;;;;;6086766;23;20151;-88
2022/08/29 12:58:38;;;;;;;5.97;3.27;;;22.80;99.90;;;;;;6088165;23;20520;-87
2022/08/29 13:01:09;;;;;;;7.50;3.33;;;22.90;99.90;;;;;;6090279;23;20174;-89
2022/08/29 13:03:35;;;;;;;6.57;3.10;;;23.20;1.00;;;;;;6086173;23;20186;-90
2022/08/29 13:06:12;;;;;;;7.63;2.97;;;23.30;1.00;;;;;;6083619;23;20152;-92
2022/08/29 13:08:38;;;;;;;7.03;3.43;;;23.40;1.00;;;;;;6082616;23;20175;-90
2022/08/29 13:11:10;;;;;;;6.73;3.27;;;23.50;1.00;;;;;;6085666;23;20239;-90
2022/08/29 13:13:39;;;;;;;5.73;3.00;;;23.20;99.90;;;;;;6091000;23;20178;-88
2022/08/29 13:16:20;;;;;;;8.83;3.43;;;23.40;1.00;;;;;;6090341;23;20152;-91
2022/08/29 13:18:46;;;;;;;6.93;3.60;;;23.40;1.00;;;;;;6083603;23;20162;-90
2022/08/29 13:21:25;;;;;;;6.57;3.27;;;23.30;99.90;;;;;;6079639;23;20156;-89
2022/08/29 13:24:09;;;;;;;8.23;3.20;;;23.20;99.90;;;;;;6080853;23;20483;-89
2022/08/29 13:26:39;;;;;;;4.87;2.80;;;23.40;99.90;;;;;;6085927;23;20155;-90
2022/08/29 13:29:20;;;;;;;9.23;3.10;;;23.60;1.00;;;;;;6085186;23;20209;-89
2022/08/29 13:32:22;;;;;;;7.37;3.93;;;23.50;99.90;;;;;;6085850;23;20152;-89
2022/08/29 13:35:13;;;;;;;4.47;2.87;;;23.50;99.90;;;;;;6094148;23;20154;-90
2022/08/29 13:37:42;;;;;;;6.33;2.80;;;23.40;99.90;;;;;;6086353;23;20148;-91
2022/08/29 13:41:02;;;;;;;7.03;3.17;;;23.40;99.90;;;;;;6079566;23;20242;-94
2022/08/29 13:43:50;;;;;;;4.80;2.60;;;23.40;99.90;;;;;;6111880;23;20151;-94
2022/08/29 13:46:30;;;;;;;7.40;3.10;;;23.70;99.90;;;;;;6061571;23;20173;-95
2022/08/29 13:49:27;;;;;;;7.00;3.20;;;23.70;99.90;;;;;;6105954;23;20183;-93
2022/08/29 13:52:09;;;;;;;6.17;2.83;;;23.60;99.90;;;;;;6092443;23;20148;-92
2022/08/29 13:54:39;;;;;;;5.47;2.80;;;23.40;99.90;;;;;;6083273;23;20163;-93
2022/08/29 13:57:06;;;;;;;5.07;3.00;;;23.10;1.00;;;;;;6077134;23;20162;-90
2022/08/29 13:59:38;;;;;;;5.73;3.43;;;23.20;1.00;;;;;;6054507;23;20547;-91
2022/08/29 14:02:06;;;;;;;7.27;3.30;;;23.20;1.00;;;;;;6077126;23;20151;-91
2022/08/29 14:04:46;;;;;;;7.47;3.17;;;23.40;1.00;;;;;;6078588;23;20219;-90
2022/08/29 14:07:41;;;;;;;5.40;2.97;;;23.60;99.90;;;;;;6054247;23;20187;-94
2022/08/29 14:10:08;;;;;;;5.93;2.80;;;23.70;99.90;;;;;;6078437;23;20199;-92
2022/08/29 14:12:34;;;;;;;6.23;2.93;;;23.60;99.90;;;;;;6079773;23;20171;-94
2022/08/29 14:15:03;;;;;;;10.00;3.43;;;23.70;99.90;;;;;;6080779;23;20158;-93
2022/08/29 14:17:29;;;;;;;6.77;3.07;;;24.00;58.40;;;;;;6081186;23;20152;-95
2022/08/29 14:19:56;;;;;;;7.37;3.20;;;24.00;1.00;;;;;;6056535;23;20155;-92